Time;durP1;ratioP1;P1;durP2;ratioP2;P2;SDS_P1;SDS_P2;PMS_P1;PMS_P2;Temp;Humidity;BMP_temperature;BMP_pressure;BME280_temperature;BME280_humidity;BME280_pressure;Samples;Min_cycle;Max_cycle;Signal;HPM_P1;HPM_P2
2021/09/30 00:01:37;;;;;;;4.90;3.10;;;436.10;2355.20;;;;;;4996033;28;20565;-90
2021/09/30 00:04:03;;;;;;;4.95;3.30;;;436.10;2355.20;;;;;;4995735;28;20029;-90
2021/09/30 00:06:30;;;;;;;4.68;3.05;;;460.80;2380.80;;;;;;4996448;28;20054;-91
2021/09/30 00:08:56;;;;;;;5.30;3.13;;;436.10;2355.20;;;;;;4996013;28;20466;-92
2021/09/30 00:11:26;;;;;;;5.15;3.35;;;460.80;2380.80;;;;;;4996000;28;20489;-91
2021/09/30 00:46:06;;;;;;;5.25;3.20;;;460.80;2380.80;;;;;;4996618;28;20046;-90
2021/09/30 00:48:49;;;;;;;4.60;2.90;;;435.90;2355.20;;;;;;4995478;28;20037;-90
2021/09/30 00:51:25;;;;;;;4.65;3.08;;;435.90;2355.20;;;;;;4995487;28;20469;-90
2021/09/30 01:20:20;;;;;;;6.07;3.38;;;436.10;2355.20;;;;;;4995742;28;20033;-91
2021/09/30 02:21:05;;;;;;;8.57;4.00;;;435.40;2355.20;;;;;;4998813;28;20141;-91
2021/09/30 02:26:35;;;;;;;7.28;4.40;;;435.60;2355.20;;;;;;4999134;28;20037;-90
2021/09/30 02:29:29;;;;;;;6.93;4.13;;;435.80;2355.20;;;;;;4998106;28;20053;-90
2021/09/30 03:00:13;;;;;;;7.43;4.40;;;435.60;2355.20;;;;;;4998277;28;20085;-92
2021/09/30 03:02:41;;;;;;;5.60;4.13;;;435.50;2355.20;;;;;;4997054;28;20030;-92
2021/09/30 03:05:09;;;;;;;8.38;4.82;;;435.40;2355.20;;;;;;4996022;28;20035;-92
2021/09/30 03:07:37;;;;;;;5.72;4.20;;;435.40;2355.20;;;;;;4997303;28;20042;-89
2021/09/30 03:10:04;;;;;;;6.00;4.47;;;435.50;2355.20;;;;;;4996971;28;20066;-91
2021/09/30 03:12:31;;;;;;;5.53;4.28;;;435.60;2355.20;;;;;;4997380;28;20030;-90
2021/09/30 03:17:45;;;;;;;6.28;4.13;;;435.70;2355.20;;;;;;5001474;28;20030;-91
2021/09/30 03:20:29;;;;;;;7.47;4.45;;;435.80;2355.20;;;;;;4998068;28;20031;-91
2021/09/30 03:23:09;;;;;;;6.72;4.85;;;435.60;2355.20;;;;;;4996976;28;20053;-91
2021/09/30 03:25:36;;;;;;;5.43;4.38;;;435.70;2355.20;;;;;;4996785;28;20084;-91
2021/09/30 03:28:03;;;;;;;6.20;4.80;;;435.60;2355.20;;;;;;4997384;28;20474;-91
2021/09/30 03:30:31;;;;;;;6.47;4.20;;;435.70;2355.20;;;;;;4997746;28;20482;-91
2021/09/30 03:33:03;;;;;;;5.95;4.10;;;435.70;2355.20;;;;;;4996167;28;20061;-91
2021/09/30 03:35:30;;;;;;;7.43;4.55;;;435.60;2355.20;;;;;;4996840;28;20493;-91
2021/09/30 03:37:56;;;;;;;5.35;3.88;;;435.70;2355.20;;;;;;4996637;28;20030;-91
2021/09/30 03:40:21;;;;;;;4.88;3.40;;;435.80;2355.20;;;;;;4996446;28;20123;-91
2021/09/30 03:42:47;;;;;;;5.63;3.78;;;435.60;2355.20;;;;;;4996407;28;20034;-92
2021/09/30 03:45:13;;;;;;;6.32;3.90;;;435.70;2355.20;;;;;;4996653;28;20034;-91
2021/09/30 03:47:39;;;;;;;7.35;3.97;;;435.80;2355.20;;;;;;4996090;28;20026;-91
2021/09/30 03:50:09;;;;;;;7.82;5.25;;;435.60;2355.20;;;;;;4996198;28;20073;-91
2021/09/30 04:00:39;;;;;;;6.60;3.70;;;435.60;2355.20;;;;;;4997125;28;20033;-91
2021/09/30 04:03:06;;;;;;;6.00;3.85;;;435.70;2355.20;;;;;;4996019;28;20382;-90
2021/09/30 04:05:32;;;;;;;6.53;4.30;;;436.10;2355.20;;;;;;4996199;28;20081;-90
2021/09/30 04:07:58;;;;;;;6.53;3.97;;;435.80;2355.20;;;;;;4995799;28;20057;-91
2021/09/30 04:10:23;;;;;;;6.18;4.10;;;435.70;2355.20;;;;;;4996133;28;20066;-90
2021/09/30 04:12:49;;;;;;;5.93;3.95;;;435.60;2355.20;;;;;;4995973;28;20389;-91
2021/09/30 04:15:15;;;;;;;8.35;4.53;;;435.50;2355.20;;;;;;4995606;28;20435;-89
2021/09/30 04:17:42;;;;;;;5.82;4.30;;;435.60;2355.20;;;;;;4995577;28;20054;-91
2021/09/30 04:20:08;;;;;;;5.22;4.10;;;435.60;2355.20;;;;;;4996098;28;20118;-90
2021/09/30 04:22:34;;;;;;;6.45;3.80;;;435.60;2355.20;;;;;;4995425;28;20459;-91
2021/09/30 04:24:59;;;;;;;6.53;3.80;;;435.40;2355.20;;;;;;4995534;28;20027;-91
2021/09/30 04:27:25;;;;;;;5.53;3.92;;;435.20;2355.20;;;;;;4995805;28;20026;-90
2021/09/30 04:29:51;;;;;;;7.13;3.92;;;435.20;2355.20;;;;;;4995480;28;20026;-90
2021/09/30 04:32:17;;;;;;;6.82;4.13;;;410.50;2355.20;;;;;;4995306;28;20031;-90
2021/09/30 04:34:43;;;;;;;8.13;4.15;;;435.30;2355.20;;;;;;4995452;28;20413;-91
2021/09/30 04:37:08;;;;;;;6.18;4.25;;;435.20;2355.20;;;;;;4995399;28;20386;-91
2021/09/30 04:39:36;;;;;;;5.32;3.85;;;435.30;2355.20;;;;;;4995341;28;20037;-90
2021/09/30 04:42:02;;;;;;;7.22;3.75;;;435.20;2355.20;;;;;;4995266;28;20477;-90
2021/09/30 04:44:27;;;;;;;6.25;3.85;;;410.50;2355.20;;;;;;4995696;28;20030;-90
2021/09/30 04:46:54;;;;;;;9.68;4.18;;;435.30;2355.20;;;;;;4995270;28;20481;-90
2021/09/30 04:49:20;;;;;;;8.43;4.03;;;435.40;2355.20;;;;;;4995233;28;20472;-90
2021/09/30 04:51:45;;;;;;;6.00;3.95;;;435.40;2355.20;;;;;;4995189;28;20117;-92
2021/09/30 04:54:11;;;;;;;5.78;3.80;;;435.50;2355.20;;;;;;4995066;28;20029;-91
2021/09/30 04:56:37;;;;;;;7.35;3.83;;;435.20;2355.20;;;;;;4995129;28;20046;-91
2021/09/30 04:59:04;;;;;;;5.88;3.78;;;435.30;2355.20;;;;;;4995061;28;20027;-91
2021/09/30 05:01:30;;;;;;;5.47;3.97;;;435.30;2355.20;;;;;;4995065;28;20034;-90
2021/09/30 05:03:56;;;;;;;6.43;3.97;;;435.40;2355.20;;;;;;4995201;28;20028;-90
2021/09/30 05:06:22;;;;;;;5.90;3.95;;;435.50;2355.20;;;;;;4995019;28;20085;-91
2021/09/30 05:08:50;;;;;;;7.18;4.68;;;435.50;2355.20;;;;;;4995040;28;20037;-90
2021/09/30 05:11:16;;;;;;;6.28;4.88;;;435.60;2355.20;;;;;;4994767;28;20030;-91
2021/09/30 05:13:43;;;;;;;6.80;4.90;;;435.40;2355.20;;;;;;4996210;28;20026;-91
2021/09/30 05:16:11;;;;;;;6.65;4.55;;;435.20;2355.20;;;;;;4995051;28;20038;-90
2021/09/30 05:18:41;;;;;;;9.02;5.15;;;435.20;2355.20;;;;;;4994859;28;20409;-90
2021/09/30 05:21:07;;;;;;;8.27;5.63;;;435.30;2355.20;;;;;;4994665;28;20034;-90
2021/09/30 05:23:33;;;;;;;10.20;6.57;;;435.40;2355.20;;;;;;4995039;28;20022;-92
2021/09/30 05:25:59;;;;;;;10.52;5.78;;;435.50;2355.20;;;;;;4994476;28;20040;-89
2021/09/30 05:28:25;;;;;;;8.43;5.47;;;435.50;2355.20;;;;;;4994072;28;20093;-90
2021/09/30 05:30:51;;;;;;;9.25;5.63;;;435.30;2355.20;;;;;;4996710;28;20466;-90
2021/09/30 05:33:17;;;;;;;9.73;6.28;;;435.40;2355.20;;;;;;5010970;28;20080;-90
2021/09/30 05:35:43;;;;;;;9.73;5.85;;;435.50;2355.20;;;;;;5013583;28;20034;-90
2021/09/30 05:38:09;;;;;;;9.88;5.15;;;435.40;2355.20;;;;;;5016792;28;20034;-91
2021/09/30 05:40:35;;;;;;;8.73;5.50;;;435.50;2355.20;;;;;;5016457;28;20010;-90
2021/09/30 05:43:02;;;;;;;10.85;5.80;;;435.50;2355.20;;;;;;5017302;28;20038;-90
2021/09/30 05:45:29;;;;;;;11.88;6.43;;;435.60;2355.20;;;;;;5016312;28;20030;-91
2021/09/30 05:47:55;;;;;;;10.88;6.07;;;435.40;2355.20;;;;;;5016530;28;20074;-91
2021/09/30 05:50:21;;;;;;;8.05;6.40;;;435.30;2355.20;;;;;;5014545;28;20019;-92
2021/09/30 05:52:46;;;;;;;11.23;6.43;;;435.40;2355.20;;;;;;5016252;28;20103;-88
2021/09/30 05:55:12;;;;;;;9.02;6.35;;;435.40;2355.20;;;;;;5011971;28;20038;-89
2021/09/30 05:57:38;;;;;;;12.68;7.72;;;435.40;2355.20;;;;;;5006225;28;20011;-90
2021/09/30 06:16:19;;;;;;;12.75;7.47;;;435.30;2355.20;;;;;;5002066;28;20023;-90
2021/09/30 06:18:45;;;;;;;9.55;6.55;;;435.30;2355.20;;;;;;5018135;28;20037;-89
2021/09/30 06:21:12;;;;;;;10.27;6.43;;;435.30;2355.20;;;;;;5017839;28;20014;-89
2021/09/30 06:23:38;;;;;;;13.02;7.40;;;435.30;2355.20;;;;;;5001909;28;20042;-90
2021/09/30 06:26:06;;;;;;;12.48;8.95;;;435.30;2355.20;;;;;;5017112;28;20067;-90
2021/09/30 06:28:32;;;;;;;15.20;8.23;;;435.30;2355.20;;;;;;5016784;28;20018;-90
2021/09/30 06:30:58;;;;;;;11.98;8.10;;;435.20;2355.20;;;;;;5018011;28;20015;-87
2021/09/30 06:33:24;;;;;;;16.60;8.13;;;435.30;2355.20;;;;;;5009892;28;20372;-91
2021/09/30 06:35:53;;;;;;;11.35;6.80;;;410.50;2355.20;;;;;;4994157;28;20038;-90
2021/09/30 06:38:19;;;;;;;8.50;6.30;;;435.30;2355.20;;;;;;4994231;28;20081;-90
2021/09/30 06:40:46;;;;;;;10.82;6.90;;;435.30;2355.20;;;;;;4995936;28;20117;-91
2021/09/30 06:43:12;;;;;;;11.68;7.15;;;435.40;2355.20;;;;;;4997715;28;20434;-89
2021/09/30 06:45:39;;;;;;;13.95;7.72;;;435.40;2355.20;;;;;;4997536;28;20031;-90
2021/09/30 06:48:05;;;;;;;12.90;7.57;;;435.40;2355.20;;;;;;4997712;28;20026;-90
2021/09/30 06:50:31;;;;;;;12.95;8.57;;;435.60;2355.20;;;;;;4997395;28;20038;-90
2021/09/30 06:52:59;;;;;;;11.20;8.63;;;435.70;2355.20;;;;;;5003067;28;20124;-90
2021/09/30 06:55:25;;;;;;;11.93;8.43;;;435.50;2355.20;;;;;;4997988;28;20034;-91
2021/09/30 06:57:51;;;;;;;12.77;9.38;;;435.60;2355.20;;;;;;4997554;28;20033;-90
2021/09/30 07:00:17;;;;;;;25.42;12.15;;;435.50;2355.20;;;;;;4997199;28;20058;-90
2021/09/30 07:02:43;;;;;;;11.73;8.27;;;435.60;2355.20;;;;;;4997199;28;20069;-90
2021/09/30 07:05:11;;;;;;;23.63;12.57;;;435.60;2355.20;;;;;;4997251;28;20030;-90
2021/09/30 07:07:37;;;;;;;16.83;10.40;;;435.50;2355.20;;;;;;4997504;28;20030;-90
2021/09/30 07:10:09;;;;;;;21.60;12.73;;;435.60;2355.20;;;;;;4997260;28;20027;-90
2021/09/30 07:12:36;;;;;;;14.13;10.25;;;435.60;2355.20;;;;;;4997088;28;20054;-90
2021/09/30 07:15:03;;;;;;;14.02;10.25;;;435.60;2355.20;;;;;;4996910;28;20038;-90
2021/09/30 07:17:29;;;;;;;13.98;9.77;;;435.60;2355.20;;;;;;4997054;28;20030;-90
2021/09/30 07:19:57;;;;;;;16.60;10.93;;;435.70;2355.20;;;;;;4996863;28;20049;-91
2021/09/30 07:22:23;;;;;;;11.45;8.32;;;435.70;2355.20;;;;;;4997117;28;20553;-89
2021/09/30 07:24:49;;;;;;;9.25;7.25;;;435.70;2355.20;;;;;;4997056;28;20462;-90
2021/09/30 07:27:15;;;;;;;12.88;7.82;;;435.60;2355.20;;;;;;4997592;28;20076;-90
2021/09/30 07:29:41;;;;;;;14.50;9.02;;;435.60;2355.20;;;;;;5000275;28;20061;-89
2021/09/30 07:32:07;;;;;;;13.43;8.68;;;435.60;2355.20;;;;;;4998612;28;20031;-91
2021/09/30 07:34:33;;;;;;;12.43;9.95;;;435.50;2355.20;;;;;;4998096;28;20100;-90
2021/09/30 07:36:59;;;;;;;14.82;9.40;;;435.60;2355.20;;;;;;4996540;28;20374;-88
2021/09/30 07:39:25;;;;;;;11.75;8.48;;;435.60;2355.20;;;;;;4996484;28;20026;-85
2021/09/30 07:41:51;;;;;;;9.02;7.50;;;435.60;2355.20;;;;;;4997011;28;20038;-85
2021/09/30 07:44:18;;;;;;;12.88;8.25;;;435.60;2355.20;;;;;;4996483;28;20058;-87
2021/09/30 07:46:45;;;;;;;19.27;11.60;;;435.60;2355.20;;;;;;4995369;28;20386;-85
2021/09/30 07:49:12;;;;;;;17.40;10.00;;;435.60;2355.20;;;;;;4995207;28;20474;-82
2021/09/30 07:51:39;;;;;;;14.05;10.77;;;435.60;2355.20;;;;;;4994337;28;20370;-78
2021/09/30 07:54:06;;;;;;;15.50;11.30;;;435.60;2355.20;;;;;;4994950;28;20022;-81
2021/09/30 07:56:33;;;;;;;14.30;9.38;;;436.00;2355.20;;;;;;4994834;28;20041;-81
2021/09/30 07:59:00;;;;;;;13.18;8.75;;;435.70;2355.20;;;;;;4995823;28;20026;-80
2021/09/30 08:01:26;;;;;;;11.05;8.60;;;435.70;2355.20;;;;;;4994989;28;20109;-82
2021/09/30 08:03:52;;;;;;;11.02;8.38;;;435.60;2355.20;;;;;;4994727;28;20026;-80
2021/09/30 08:06:19;;;;;;;11.18;8.55;;;435.60;2355.20;;;;;;4978257;28;20081;-82
2021/09/30 08:08:46;;;;;;;15.32;9.65;;;435.80;2355.20;;;;;;4994697;28;20026;-81
2021/09/30 08:11:12;;;;;;;11.40;8.27;;;435.60;2355.20;;;;;;4994594;28;20048;-81
2021/09/30 08:13:38;;;;;;;13.63;8.80;;;435.60;2355.20;;;;;;4994216;28;20030;-81
2021/09/30 08:16:05;;;;;;;14.57;9.77;;;435.60;2355.20;;;;;;4994360;28;20037;-80
2021/09/30 08:18:32;;;;;;;12.18;9.35;;;435.60;2355.20;;;;;;4994097;28;20034;-79
2021/09/30 08:20:58;;;;;;;16.52;10.52;;;435.50;2355.20;;;;;;4994287;28;20026;-80
2021/09/30 08:23:24;;;;;;;11.35;9.07;;;435.50;2355.20;;;;;;4994168;28;20054;-81
2021/09/30 08:25:51;;;;;;;13.30;9.93;;;435.60;2355.20;;;;;;4995444;28;20034;-81
2021/09/30 08:28:20;;;;;;;12.13;8.10;;;435.60;2355.20;;;;;;4994051;28;20092;-82
2021/09/30 08:30:46;;;;;;;12.00;8.00;;;435.50;2355.20;;;;;;4995358;28;20069;-80
2021/09/30 08:33:12;;;;;;;11.63;8.93;;;435.50;2355.20;;;;;;4993316;28;20053;-81
2021/09/30 08:35:39;;;;;;;12.07;9.70;;;435.50;2355.20;;;;;;4993929;28;20038;-81
2021/09/30 08:38:06;;;;;;;15.82;9.68;;;435.60;2355.20;;;;;;4993984;28;20085;-81
2021/09/30 08:40:32;;;;;;;16.02;10.35;;;435.60;2355.20;;;;;;4994262;28;20037;-81
2021/09/30 08:42:58;;;;;;;16.58;10.35;;;435.60;2355.20;;;;;;4995138;28;20026;-81
2021/09/30 08:45:24;;;;;;;12.70;9.40;;;435.60;2355.20;;;;;;4994040;28;20034;-81
2021/09/30 08:47:59;;;;;;;13.05;9.15;;;435.60;2355.20;;;;;;4993585;28;20355;-81
2021/09/30 08:50:25;;;;;;;16.88;11.15;;;435.60;2355.20;;;;;;4995111;28;20034;-82
2021/09/30 08:52:51;;;;;;;17.08;10.40;;;435.60;2355.20;;;;;;4977786;28;20030;-81
2021/09/30 08:55:18;;;;;;;15.35;11.45;;;435.60;2355.20;;;;;;4993308;28;20489;-82
2021/09/30 08:57:48;;;;;;;18.08;11.52;;;435.60;2355.20;;;;;;4993842;28;20470;-81
2021/09/30 09:00:17;;;;;;;19.98;14.02;;;435.60;2355.20;;;;;;4993649;28;20061;-82
2021/09/30 09:02:48;;;;;;;22.80;13.60;;;435.60;2355.20;;;;;;4992656;28;20034;-82
2021/09/30 09:05:15;;;;;;;14.10;11.18;;;435.70;2355.20;;;;;;4993724;28;20053;-82
2021/09/30 09:07:51;;;;;;;15.90;11.32;;;435.70;2355.20;;;;;;4993026;28;20120;-82
2021/09/30 09:10:19;;;;;;;16.95;11.90;;;435.60;2355.20;;;;;;4985344;28;20445;-80
2021/09/30 09:12:45;;;;;;;14.57;11.90;;;435.50;2355.20;;;;;;4993429;28;20065;-85
2021/09/30 09:15:11;;;;;;;14.60;12.15;;;435.50;2355.20;;;;;;4993085;28;20066;-81
2021/09/30 09:17:40;;;;;;;15.52;12.50;;;435.50;2355.20;;;;;;4976842;28;20467;-83
2021/09/30 09:20:06;;;;;;;17.95;13.75;;;435.50;2355.20;;;;;;4977121;28;20526;-80
2021/09/30 09:22:35;;;;;;;32.00;13.38;;;435.50;2355.20;;;;;;4977370;28;20081;-82
2021/09/30 09:25:04;;;;;;;18.67;13.73;;;435.60;2355.20;;;;;;4993862;28;20458;-80
2021/09/30 09:27:54;;;;;;;18.20;14.07;;;435.60;2355.20;;;;;;4993241;28;20486;-81
2021/09/30 09:30:40;;;;;;;21.65;14.63;;;435.60;2355.20;;;;;;4985480;28;20038;-87
2021/09/30 09:33:28;;;;;;;19.77;14.57;;;435.70;2355.20;;;;;;4976848;28;20049;-83
2021/09/30 09:36:05;;;;;;;26.90;17.15;;;435.70;2355.20;;;;;;4994098;28;20390;-83
2021/09/30 09:38:43;;;;;;;56.10;21.77;;;435.60;2355.20;;;;;;4994674;28;20022;-84
2021/09/30 09:41:19;;;;;;;28.95;15.73;;;435.60;2355.20;;;;;;4976841;28;20022;-84
2021/09/30 09:43:46;;;;;;;16.98;12.85;;;435.70;2355.20;;;;;;4977461;28;20037;-85
2021/09/30 09:46:14;;;;;;;17.60;12.75;;;435.30;2355.20;;;;;;4977551;28;20524;-84
2021/09/30 09:48:53;;;;;;;16.20;12.75;;;435.50;2355.20;;;;;;4977383;28;20023;-84
2021/09/30 09:51:19;;;;;;;16.67;12.90;;;435.40;2355.20;;;;;;4977733;28;20030;-85
2021/09/30 09:53:44;;;;;;;20.35;16.58;;;435.50;2355.20;;;;;;4977253;28;20045;-84
2021/09/30 09:56:20;;;;;;;19.70;13.35;;;435.60;2355.20;;;;;;4977449;28;20088;-85
2021/09/30 09:58:55;;;;;;;25.05;13.80;;;435.60;2355.20;;;;;;4976910;28;20026;-86
2021/09/30 10:01:44;;;;;;;20.52;12.95;;;435.70;2355.20;;;;;;4977190;28;20038;-86
2021/09/30 10:04:12;;;;;;;14.88;11.75;;;435.70;2355.20;;;;;;4993719;28;20082;-87
2021/09/30 10:06:39;;;;;;;18.73;13.13;;;435.80;2355.20;;;;;;4977420;28;20034;-86
2021/09/30 10:09:07;;;;;;;15.35;12.93;;;435.90;2355.20;;;;;;4977508;28;20023;-87
2021/09/30 10:11:35;;;;;;;14.63;12.10;;;435.80;2355.20;;;;;;4977375;28;20033;-87
2021/09/30 10:14:04;;;;;;;18.88;12.23;;;435.90;2355.20;;;;;;4978338;28;20077;-87
2021/09/30 10:16:30;;;;;;;57.80;50.65;;;436.00;2355.20;;;;;;4981815;28;20065;-88
2021/09/30 10:19:08;;;;;;;21.60;16.73;;;436.10;2355.20;;;;;;4981524;28;20073;-88
2021/09/30 10:21:35;;;;;;;19.33;14.75;;;436.00;2355.20;;;;;;4981819;28;20038;-88
2021/09/30 10:24:13;;;;;;;16.80;13.88;;;436.00;2355.20;;;;;;4997843;28;20425;-88
2021/09/30 10:26:49;;;;;;;27.02;15.38;;;436.00;2355.20;;;;;;4981102;28;20041;-88
2021/09/30 10:29:45;;;;;;;15.85;13.20;;;436.00;2355.20;;;;;;4981713;28;20034;-88
2021/09/30 10:32:16;;;;;;;16.00;12.85;;;436.10;2355.20;;;;;;4981075;28;20390;-88
2021/09/30 10:34:45;;;;;;;16.60;13.73;;;436.10;2355.20;;;;;;4981447;28;20061;-88
2021/09/30 10:37:31;;;;;;;19.27;13.68;;;436.10;2355.20;;;;;;4980767;28;20118;-89
2021/09/30 10:40:15;;;;;;;16.88;13.95;;;460.80;2380.80;;;;;;4997128;28;20034;-88
2021/09/30 10:42:56;;;;;;;17.45;12.27;;;460.80;2380.80;;;;;;4990373;28;20117;-87
2021/09/30 10:45:32;;;;;;;14.85;10.43;;;460.80;2380.80;;;;;;4996541;28;20321;-88
2021/09/30 10:48:27;;;;;;;16.35;11.95;;;436.10;2355.20;;;;;;4980928;28;20026;-87
2021/09/30 10:51:05;;;;;;;17.55;12.95;;;460.80;2380.80;;;;;;4998007;28;20022;-86
2021/09/30 10:53:49;;;;;;;16.90;12.30;;;460.80;2380.80;;;;;;4984849;28;20030;-86
2021/09/30 10:56:24;;;;;;;22.33;13.57;;;460.80;2380.80;;;;;;4961443;28;20034;-86
2021/09/30 10:58:51;;;;;;;14.73;11.70;;;460.80;2380.80;;;;;;4977273;28;20050;-88
2021/09/30 11:01:18;;;;;;;16.08;13.10;;;460.80;2380.80;;;;;;4998246;28;20022;-88
2021/09/30 11:04:04;;;;;;;18.15;14.85;;;460.80;2380.80;;;;;;4996909;28;20026;-87
2021/09/30 11:06:31;;;;;;;17.50;13.52;;;460.80;2380.80;;;;;;4996433;28;20062;-90
2021/09/30 11:09:18;;;;;;;16.70;12.20;;;436.10;2355.20;;;;;;4996533;28;20026;-84
2021/09/30 11:12:05;;;;;;;21.33;13.48;;;460.80;2380.80;;;;;;4996463;28;20054;-85
2021/09/30 11:14:31;;;;;;;23.98;14.30;;;460.80;2380.80;;;;;;4997238;28;20053;-85
2021/09/30 11:16:57;;;;;;;19.02;12.93;;;460.80;2380.80;;;;;;4996472;28;20031;-84
2021/09/30 11:19:43;;;;;;;20.17;14.40;;;460.90;2380.80;;;;;;4996274;28;20023;-85
2021/09/30 11:22:12;;;;;;;16.75;13.98;;;460.90;2380.80;;;;;;4996534;28;20022;-87
2021/09/30 11:24:57;;;;;;;16.92;13.38;;;460.80;2380.80;;;;;;4996171;28;20027;-86
2021/09/30 11:27:29;;;;;;;15.75;12.80;;;460.90;2380.80;;;;;;4995412;28;20022;-86
2021/09/30 11:30:24;;;;;;;16.90;12.53;;;460.80;2380.80;;;;;;4996275;28;20027;-86
2021/09/30 11:32:57;;;;;;;16.10;12.75;;;460.90;2380.80;;;;;;4996674;28;20054;-86
2021/09/30 11:35:22;;;;;;;16.38;11.40;;;460.90;2380.80;;;;;;4996098;28;20034;-85
2021/09/30 11:37:48;;;;;;;15.82;12.32;;;460.90;2380.80;;;;;;4996143;28;20042;-89
2021/09/30 11:40:18;;;;;;;15.80;12.98;;;460.90;2380.80;;;;;;4996363;28;20033;-89
2021/09/30 11:42:52;;;;;;;15.25;12.52;;;461.00;2380.80;;;;;;4996951;28;20026;-88
2021/09/30 11:45:22;;;;;;;17.73;12.30;;;460.80;2380.80;;;;;;4996768;28;20030;-88
2021/09/30 11:47:49;;;;;;;13.73;10.38;;;460.90;2380.80;;;;;;5000860;28;20050;-85
2021/09/30 11:50:23;;;;;;;13.50;11.02;;;460.90;2380.80;;;;;;4996370;28;20033;-89
2021/09/30 11:52:58;;;;;;;16.50;13.10;;;460.90;2380.80;;;;;;4996899;28;20033;-89
2021/09/30 11:55:27;;;;;;;14.77;11.45;;;460.80;2380.80;;;;;;5002411;28;20465;-90
2021/09/30 11:57:56;;;;;;;17.77;12.32;;;436.00;2355.20;;;;;;5001773;28;20041;-91
2021/09/30 12:00:23;;;;;;;16.73;12.63;;;436.00;2355.20;;;;;;5001605;28;20033;-91
2021/09/30 12:02:56;;;;;;;13.57;10.52;;;460.80;2380.80;;;;;;4996825;28;20030;-86
2021/09/30 12:05:25;;;;;;;16.08;11.57;;;460.80;2380.80;;;;;;4995905;28;20019;-85
2021/09/30 12:07:51;;;;;;;16.33;12.77;;;460.90;2380.80;;;;;;4996780;28;20046;-88
2021/09/30 12:10:18;;;;;;;14.80;11.82;;;461.10;2380.80;;;;;;5000844;28;20030;-87
2021/09/30 12:12:47;;;;;;;16.48;12.45;;;461.10;2380.80;;;;;;5002144;28;20386;-88
2021/09/30 12:15:14;;;;;;;16.77;12.35;;;460.90;2380.80;;;;;;4987756;28;20030;-89
2021/09/30 12:17:42;;;;;;;16.27;12.85;;;461.10;2380.80;;;;;;4998389;28;20053;-90
2021/09/30 12:20:13;;;;;;;16.25;11.18;;;461.20;2380.80;;;;;;4995553;28;20108;-88
2021/09/30 12:22:49;;;;;;;16.02;14.30;;;461.10;2380.80;;;;;;4996142;28;20033;-89
2021/09/30 12:25:24;;;;;;;19.50;16.00;;;461.10;2380.80;;;;;;4997344;28;20022;-89
2021/09/30 12:27:54;;;;;;;20.70;13.13;;;461.00;2380.80;;;;;;4998790;28;20038;-88
2021/09/30 12:30:28;;;;;;;31.88;25.60;;;461.10;2380.80;;;;;;4997317;28;20113;-88
2021/09/30 12:33:00;;;;;;;24.20;19.95;;;460.90;2380.80;;;;;;4995861;28;20467;-87
2021/09/30 12:35:34;;;;;;;33.03;29.43;;;460.90;2380.80;;;;;;4997449;28;20042;-90
2021/09/30 12:38:03;;;;;;;37.45;27.98;;;460.80;2380.80;;;;;;4995755;28;20031;-88
2021/09/30 12:40:34;;;;;;;36.00;32.30;;;460.80;2380.80;;;;;;4997975;28;20085;-89
2021/09/30 12:43:12;;;;;;;49.28;44.25;;;460.80;2380.80;;;;;;4981530;28;20026;-89
2021/09/30 12:46:20;;;;;;;22.73;16.95;;;460.90;2380.80;;;;;;4998319;28;20097;-90
2021/09/30 12:48:49;;;;;;;17.92;15.40;;;461.00;2380.80;;;;;;4989328;28;20022;-91
2021/09/30 12:51:23;;;;;;;28.67;17.83;;;435.80;2355.20;;;;;;4995482;28;20026;-88
2021/09/30 12:53:51;;;;;;;14.38;12.48;;;461.00;2380.80;;;;;;4995327;28;20031;-88
2021/09/30 12:56:21;;;;;;;19.88;14.93;;;460.90;2380.80;;;;;;4994921;28;20085;-90
2021/09/30 12:58:50;;;;;;;22.30;14.93;;;460.90;2380.80;;;;;;4995363;28;20030;-89
2021/09/30 13:01:33;;;;;;;19.60;15.45;;;461.00;2380.80;;;;;;4995013;28;20113;-88
2021/09/30 13:04:13;;;;;;;20.55;15.35;;;461.00;2380.80;;;;;;4995098;28;20386;-87
2021/09/30 13:06:54;;;;;;;20.73;12.63;;;461.00;2380.80;;;;;;4979083;28;20081;-89
2021/09/30 13:09:25;;;;;;;20.85;13.65;;;461.00;2380.80;;;;;;4982169;28;20023;-88
2021/09/30 13:12:00;;;;;;;20.85;15.30;;;460.90;2380.80;;;;;;4994898;28;20026;-87
2021/09/30 13:14:29;;;;;;;18.08;13.38;;;460.80;2380.80;;;;;;4995215;28;20463;-87
2021/09/30 13:16:56;;;;;;;20.17;14.27;;;460.90;2380.80;;;;;;4978622;28;20045;-88
2021/09/30 13:19:52;;;;;;;19.45;15.35;;;461.00;2380.80;;;;;;4978475;28;20057;-87
2021/09/30 13:22:20;;;;;;;17.75;15.13;;;461.00;2380.80;;;;;;4994558;28;20041;-88
2021/09/30 13:24:47;;;;;;;20.20;15.57;;;461.10;2380.80;;;;;;4978795;28;20028;-88
2021/09/30 13:27:16;;;;;;;19.80;15.60;;;461.10;2380.80;;;;;;4996200;28;20018;-87
2021/09/30 13:29:47;;;;;;;19.02;12.73;;;461.10;2380.80;;;;;;4994626;28;20038;-86
2021/09/30 13:32:28;;;;;;;17.02;13.10;;;461.20;2380.80;;;;;;4994313;28;20030;-89
2021/09/30 13:34:55;;;;;;;17.40;12.98;;;461.20;2380.80;;;;;;4995769;28;20057;-88
2021/09/30 13:37:22;;;;;;;22.85;14.90;;;461.20;2380.80;;;;;;4995972;28;20026;-88
2021/09/30 13:39:49;;;;;;;20.92;15.80;;;460.80;2380.80;;;;;;4996637;28;20089;-87
2021/09/30 13:42:15;;;;;;;16.60;13.77;;;461.30;2380.80;;;;;;4995472;28;20046;-87
2021/09/30 13:44:41;;;;;;;30.27;20.65;;;461.30;2380.80;;;;;;4995201;28;20033;-87
2021/09/30 13:47:07;;;;;;;26.13;19.92;;;461.20;2380.80;;;;;;4995434;28;20030;-87
2021/09/30 13:49:33;;;;;;;34.80;28.23;;;461.20;2380.80;;;;;;4994576;28;20109;-85
2021/09/30 13:51:59;;;;;;;21.55;16.77;;;461.20;2380.80;;;;;;4994347;28;20030;-90
2021/09/30 13:54:25;;;;;;;28.20;20.75;;;461.20;2380.80;;;;;;4994104;28;20381;-86
2021/09/30 13:56:51;;;;;;;25.35;20.17;;;461.40;2380.80;;;;;;4993353;28;20037;-86
2021/09/30 13:59:17;;;;;;;24.50;17.50;;;461.40;2380.80;;;;;;4993740;28;20069;-85
2021/09/30 14:01:42;;;;;;;30.60;27.27;;;486.40;2380.80;;;;;;4994193;28;20030;-88
2021/09/30 14:04:08;;;;;;;34.08;28.08;;;461.50;2380.80;;;;;;4995224;28;20026;-85
2021/09/30 14:06:34;;;;;;;29.13;20.00;;;461.40;2380.80;;;;;;4995287;28;20022;-84
2021/09/30 14:09:00;;;;;;;28.02;21.10;;;461.50;2380.80;;;;;;4980177;28;20114;-84
2021/09/30 14:11:27;;;;;;;32.13;24.30;;;461.40;2380.80;;;;;;4995322;28;20026;-84
2021/09/30 14:13:55;;;;;;;21.02;16.05;;;461.40;2380.80;;;;;;4993245;28;20026;-86
2021/09/30 14:16:22;;;;;;;27.55;21.10;;;461.40;2380.80;;;;;;4993089;28;20026;-84
2021/09/30 14:18:48;;;;;;;21.25;15.85;;;461.50;2380.80;;;;;;4993618;28;20030;-84
2021/09/30 14:21:14;;;;;;;16.63;12.90;;;461.50;2380.80;;;;;;4993629;28;20382;-86
2021/09/30 14:23:40;;;;;;;20.45;13.73;;;461.60;2380.80;;;;;;4996252;28;20037;-85
2021/09/30 14:26:07;;;;;;;20.70;14.20;;;461.60;2380.80;;;;;;4995180;28;20174;-86
2021/09/30 14:28:32;;;;;;;23.23;15.02;;;461.60;2380.80;;;;;;4995034;28;20030;-84
2021/09/30 14:30:59;;;;;;;16.77;13.93;;;461.70;2380.80;;;;;;4995647;28;20510;-86
2021/09/30 14:33:29;;;;;;;16.00;12.82;;;461.70;2380.80;;;;;;4993021;28;20049;-82
2021/09/30 14:35:57;;;;;;;16.02;12.88;;;461.70;2380.80;;;;;;4993400;28;20085;-82
2021/09/30 14:38:23;;;;;;;17.38;12.20;;;486.40;2380.80;;;;;;4993087;28;20363;-83
2021/09/30 14:40:50;;;;;;;15.38;11.60;;;486.40;2380.80;;;;;;4993164;28;20041;-83
2021/09/30 14:43:18;;;;;;;14.55;11.88;;;486.40;2380.80;;;;;;4993144;28;20030;-84
2021/09/30 14:45:44;;;;;;;14.23;10.60;;;486.40;2380.80;;;;;;4993066;28;20031;-84
2021/09/30 14:48:11;;;;;;;17.83;12.82;;;461.40;2380.80;;;;;;4977106;28;20030;-84
2021/09/30 14:50:38;;;;;;;17.42;13.55;;;486.40;2380.80;;;;;;4992832;28;20034;-84
2021/09/30 14:53:03;;;;;;;18.10;14.18;;;486.40;2380.80;;;;;;4993477;28;20414;-84
2021/09/30 14:55:30;;;;;;;17.50;12.52;;;486.40;2380.80;;;;;;4993144;28;20038;-83
2021/09/30 14:57:55;;;;;;;20.63;14.00;;;461.70;2380.80;;;;;;4992987;28;20026;-83
2021/09/30 15:00:21;;;;;;;20.92;14.70;;;461.70;2380.80;;;;;;4993206;28;20033;-84
2021/09/30 15:02:47;;;;;;;20.10;13.48;;;486.40;2380.80;;;;;;4996543;28;20030;-82
2021/09/30 15:05:13;;;;;;;18.83;13.25;;;461.70;2380.80;;;;;;4996397;28;20113;-83
2021/09/30 15:07:39;;;;;;;15.43;13.20;;;486.40;2380.80;;;;;;4998041;28;20026;-82
2021/09/30 15:10:06;;;;;;;18.58;13.43;;;461.70;2380.80;;;;;;4997995;28;20031;-83
2021/09/30 15:12:32;;;;;;;19.45;13.88;;;461.70;2380.80;;;;;;4995918;28;20026;-83